Terminal Aerodrome Forecast
Issued by NWS

Home | Current Version | Previous Version | Text Only | Print | Product List | Glossary On
Versions: 1 2 3 4 5 6 7 8 9 10 11 12 13 14 15 16 17 18 19 20 21 22 23 24 25 26
000
FTUS43 KLSX 282300
TAFUIN
TAF
KUIN 282338Z 2900/2924 02006KT P6SM VCTS BKN040CB OVC080
      TEMPO 2900/2901 4SM -TSRA
     FM290200 12006KT P6SM SCT120 BKN250
     FM290900 16007KT P6SM SCT080 BKN150
     FM291500 19010KT P6SM SCT035 BKN120
     FM292100 19010KT P6SM VCTS SCT045CB BKN120=

USA.gov is the U.S. government's official web portal to all federal, state and local government web resources and services.